createdAt,value
2022-10-14T00:00:13.805Z,101272.25
2022-10-14T00:02:42.177Z,101269.38
2022-10-14T00:05:10.948Z,101270.50
2022-10-14T00:07:39.151Z,101265.84
2022-10-14T00:10:09.175Z,101261.06
2022-10-14T00:12:36.937Z,101266.06
2022-10-14T00:15:05.778Z,101266.50
2022-10-14T00:17:33.617Z,101259.91
2022-10-14T00:20:01.707Z,101259.91
2022-10-14T00:22:29.511Z,101262.00
2022-10-14T00:24:57.428Z,101255.72
2022-10-14T00:27:26.729Z,101251.72
2022-10-14T00:29:54.915Z,101246.13
2022-10-14T00:32:22.788Z,101257.84
2022-10-14T00:34:50.687Z,101261.06
2022-10-14T00:37:18.621Z,101266.19
2022-10-14T00:39:46.620Z,101255.72
2022-10-14T00:42:15.966Z,101257.34
2022-10-14T00:45:12.644Z,101253.03
2022-10-14T00:47:41.747Z,101261.84
2022-10-14T00:50:11.324Z,101260.38
2022-10-14T00:52:39.500Z,101256.84
2022-10-14T00:55:11.316Z,101251.38
2022-10-14T00:57:39.960Z,101258.13
2022-10-14T01:00:11.421Z,101257.00
2022-10-14T01:02:39.744Z,101255.97
2022-10-14T01:05:10.938Z,101258.41
2022-10-14T01:07:45.798Z,101253.84
2022-10-14T01:10:21.104Z,101257.09
2022-10-14T01:13:02.612Z,101253.22
2022-10-14T01:15:39.799Z,101255.47
2022-10-14T01:18:21.265Z,101256.94
2022-10-14T01:21:16.888Z,101256.13
2022-10-14T01:24:12.342Z,101246.78
2022-10-14T01:27:11.805Z,101233.13
2022-10-14T01:30:10.549Z,101234.94
2022-10-14T01:32:47.192Z,101235.06
2022-10-14T01:35:25.816Z,101224.00
2022-10-14T01:37:58.110Z,101219.53
2022-10-14T01:40:33.619Z,101216.47
2022-10-14T01:43:04.398Z,101213.88
2022-10-14T01:45:37.750Z,101203.06
2022-10-14T01:48:07.335Z,101204.19
2022-10-14T01:50:37.915Z,101205.34
2022-10-14T01:53:09.372Z,101201.47
2022-10-14T01:55:41.474Z,101191.22
2022-10-14T01:58:11.666Z,101195.06
2022-10-14T02:00:41.164Z,101205.06
2022-10-14T02:03:10.131Z,101202.34
2022-10-14T02:05:43.135Z,101195.72
2022-10-14T02:08:14.396Z,101201.88
2022-10-14T02:11:02.227Z,101196.44
2022-10-14T02:13:44.061Z,101189.72
2022-10-14T02:16:23.073Z,101188.94
2022-10-14T02:18:55.533Z,101191.47
2022-10-14T02:21:29.782Z,101191.59
2022-10-14T02:24:03.134Z,101185.47
2022-10-14T02:26:32.374Z,101183.53
2022-10-14T02:29:02.626Z,101190.94
2022-10-14T02:31:33.755Z,101181.59
2022-10-14T02:34:05.771Z,101185.78
2022-10-14T02:36:35.620Z,101186.13
2022-10-14T02:39:05.057Z,101173.59
2022-10-14T02:41:37.397Z,101174.72
2022-10-14T02:44:06.477Z,101164.16
2022-10-14T02:46:36.324Z,101163.34
2022-10-14T02:49:04.247Z,101160.94
2022-10-14T02:51:31.986Z,101145.22
2022-10-14T02:54:01.547Z,101153.06
2022-10-14T02:56:29.445Z,101144.06
2022-10-14T02:58:57.243Z,101139.84
2022-10-14T03:01:25.015Z,101144.69
2022-10-14T03:03:54.256Z,101145.47
2022-10-14T03:06:22.125Z,101143.09
2022-10-14T03:08:49.954Z,101144.69
2022-10-14T03:11:18.093Z,101152.41
2022-10-14T03:13:45.954Z,101138.25
2022-10-14T03:16:13.749Z,101137.63
2022-10-14T03:18:41.517Z,101138.19
2022-10-14T03:21:10.706Z,101137.19
2022-10-14T03:23:38.524Z,101129.44
2022-10-14T03:26:09.536Z,101135.72
2022-10-14T03:28:39.696Z,101125.13
2022-10-14T03:31:07.548Z,101137.19
2022-10-14T03:33:35.301Z,101129.44
2022-10-14T03:36:03.173Z,101131.06
2022-10-14T03:38:32.317Z,101127.66
2022-10-14T03:41:00.101Z,101120.72
2022-10-14T03:43:28.518Z,101119.72
2022-10-14T03:45:56.276Z,101120.97
2022-10-14T03:48:24.089Z,101120.66
2022-10-14T03:50:51.893Z,101115.84
2022-10-14T03:53:20.155Z,101122.44
2022-10-14T03:55:49.288Z,101117.44
2022-10-14T03:58:17.090Z,101119.03
2022-10-14T04:00:44.920Z,101126.91
2022-10-14T04:03:12.742Z,101111.31
2022-10-14T04:05:40.559Z,101122.56
2022-10-14T04:08:08.811Z,101119.03
2022-10-14T04:10:36.654Z,101114.06
2022-10-14T04:13:05.909Z,101117.91
2022-10-14T04:15:33.738Z,101119.03
2022-10-14T04:18:01.499Z,101122.91
2022-10-14T04:20:29.363Z,101126.78
2022-10-14T04:23:00.724Z,101118.56
2022-10-14T04:25:28.618Z,101113.78
2022-10-14T04:27:56.370Z,101110.91
2022-10-14T04:30:25.519Z,101108.53
2022-10-14T04:32:53.287Z,101119.47
2022-10-14T04:35:21.039Z,101114.78
2022-10-14T04:37:48.823Z,101109.31
2022-10-14T04:40:16.722Z,101111.25
2022-10-14T04:42:44.471Z,101104.66
2022-10-14T04:45:12.352Z,101099.19
2022-10-14T04:47:46.162Z,101095.19
2022-10-14T04:50:16.391Z,101101.66
2022-10-14T04:52:44.143Z,101097.34
2022-10-14T04:55:12.731Z,101091.72
2022-10-14T04:57:43.288Z,101096.41
2022-10-14T05:00:13.153Z,101082.28
2022-10-14T05:02:42.281Z,101097.19
2022-10-14T05:05:10.487Z,101092.06
2022-10-14T05:07:38.270Z,101082.28
2022-10-14T05:10:06.908Z,101080.00
2022-10-14T05:12:35.097Z,101078.88
2022-10-14T05:15:05.333Z,101074.53
2022-10-14T05:17:33.234Z,101070.22
2022-10-14T05:20:02.611Z,101077.75
2022-10-14T05:22:30.394Z,101073.88
2022-10-14T05:24:58.141Z,101070.00
2022-10-14T05:27:25.970Z,101065.69
2022-10-14T05:29:53.803Z,101069.22
2022-10-14T05:32:22.578Z,101062.59
2022-10-14T05:34:50.692Z,101061.47
2022-10-14T05:37:19.838Z,101058.72
2022-10-14T05:39:47.656Z,101058.38
2022-10-14T05:42:15.434Z,101056.13
2022-10-14T05:44:43.339Z,101052.25
2022-10-14T05:47:11.418Z,101057.03
2022-10-14T05:49:39.211Z,101046.09
2022-10-14T05:52:07.006Z,101047.69
2022-10-14T05:54:36.182Z,101050.91
2022-10-14T05:57:03.967Z,101040.44
2022-10-14T05:59:33.361Z,101033.84
2022-10-14T06:02:01.471Z,101043.16
2022-10-14T06:04:29.185Z,101034.53
2022-10-14T06:06:57.073Z,101034.53
2022-10-14T06:09:24.850Z,101032.25
2022-10-14T06:11:53.985Z,101026.09
2022-10-14T06:14:21.814Z,101021.91
2022-10-14T06:16:52.022Z,101023.13
2022-10-14T06:19:19.908Z,101029.06
2022-10-14T06:21:47.646Z,101021.00
2022-10-14T06:24:15.839Z,101022.59
2022-10-14T06:26:43.589Z,101023.38
2022-10-14T06:29:13.297Z,101024.19
2022-10-14T06:31:41.130Z,101027.25
2022-10-14T06:34:09.522Z,101024.88
2022-10-14T06:36:37.903Z,101031.94
2022-10-14T06:39:05.956Z,101023.28
2022-10-14T06:41:34.284Z,101025.41
2022-10-14T06:44:02.143Z,101018.13
2022-10-14T06:46:31.506Z,101024.25
2022-10-14T06:48:59.269Z,101013.31
2022-10-14T06:51:27.073Z,101010.91
2022-10-14T06:53:55.072Z,101010.13
2022-10-14T06:56:22.894Z,101008.97
2022-10-14T06:58:54.745Z,101007.19
2022-10-14T07:01:23.613Z,101007.19
2022-10-14T07:03:55.802Z,101009.22
2022-10-14T07:06:24.640Z,101004.56
2022-10-14T07:08:52.442Z,101001.47
2022-10-14T07:11:20.217Z,101000.22
2022-10-14T07:13:47.945Z,101001.03
2022-10-14T07:16:15.820Z,101002.50
2022-10-14T07:18:43.783Z,101000.56
2022-10-14T07:21:16.030Z,100984.63
2022-10-14T07:23:43.802Z,100986.69
2022-10-14T07:26:11.575Z,100991.03
2022-10-14T07:28:39.409Z,100986.34
2022-10-14T07:31:09.600Z,100985.56
2022-10-14T07:33:39.418Z,100987.81
2022-10-14T07:36:10.851Z,100986.22
2022-10-14T07:38:40.725Z,100987.81
2022-10-14T07:41:16.885Z,100999.69
2022-10-14T07:43:45.680Z,101000.13
2022-10-14T07:46:14.650Z,100996.72
2022-10-14T07:48:56.556Z,101005.38
2022-10-14T07:51:25.652Z,101000.00
2022-10-14T07:53:55.213Z,101007.09
2022-10-14T07:56:23.595Z,101006.41
2022-10-14T07:58:51.627Z,101005.72
2022-10-14T08:01:20.170Z,101012.47
2022-10-14T08:03:49.454Z,101007.44
2022-10-14T08:06:17.912Z,100995.25
2022-10-14T08:08:46.674Z,100993.31
2022-10-14T08:11:17.968Z,100981.69
2022-10-14T08:13:46.744Z,100979.53
2022-10-14T08:16:16.937Z,100980.47
2022-10-14T08:18:45.177Z,100977.50
2022-10-14T08:21:13.389Z,100972.94
2022-10-14T08:23:41.305Z,100974.63
2022-10-14T08:26:21.212Z,100975.91
2022-10-14T08:28:49.434Z,100963.91
2022-10-14T08:31:17.989Z,100963.34
2022-10-14T08:33:46.017Z,100974.84
2022-10-14T08:36:14.067Z,100974.63
2022-10-14T08:38:41.876Z,100962.97
2022-10-14T08:41:26.089Z,100961.28
2022-10-14T08:44:02.819Z,100950.19
2022-10-14T08:46:37.893Z,100939.81
2022-10-14T08:49:13.470Z,100947.88
2022-10-14T08:51:45.097Z,100954.25
2022-10-14T08:54:17.154Z,100949.69
2022-10-14T08:56:46.652Z,100942.25
2022-10-14T08:59:17.023Z,100945.59
2022-10-14T09:01:52.724Z,100933.97
2022-10-14T09:04:21.425Z,100941.50
2022-10-14T09:06:52.343Z,100934.78
2022-10-14T09:09:26.157Z,100933.28
2022-10-14T09:12:00.693Z,100934.63
2022-10-14T09:14:37.227Z,100937.56
2022-10-14T09:19:42.987Z,100940.50
2022-10-14T09:22:15.404Z,100926.47
2022-10-14T09:24:46.253Z,100926.56
2022-10-14T09:27:18.598Z,100925.00
2022-10-14T09:29:49.717Z,100924.63
2022-10-14T09:32:29.521Z,100922.59
2022-10-14T09:34:59.098Z,100922.69
2022-10-14T09:37:28.957Z,100917.22
2022-10-14T09:40:00.784Z,100911.84
2022-10-14T09:42:41.996Z,100908.75
2022-10-14T09:45:12.962Z,100908.59
2022-10-14T09:47:47.425Z,100922.38
2022-10-14T09:50:23.544Z,100918.50
2022-10-14T09:52:56.588Z,100913.81
2022-10-14T09:55:25.521Z,100921.25
2022-10-14T09:58:17.449Z,100912.91
2022-10-14T10:00:46.927Z,100907.78
2022-10-14T10:03:26.950Z,100900.66
2022-10-14T10:06:04.008Z,100896.34
2022-10-14T10:08:32.684Z,100896.34
2022-10-14T10:11:06.927Z,100902.28
2022-10-14T10:13:44.904Z,100897.69
2022-10-14T10:16:24.817Z,100899.03
2022-10-14T10:18:55.526Z,100886.66
2022-10-14T10:21:26.055Z,100885.94
2022-10-14T10:23:56.945Z,100884.44
2022-10-14T10:26:28.326Z,100881.72
2022-10-14T10:28:58.757Z,100875.44
2022-10-14T10:31:55.668Z,100879.28
2022-10-14T10:34:48.143Z,100881.00
2022-10-14T10:37:28.726Z,100874.00
2022-10-14T10:40:18.393Z,100870.56
2022-10-14T10:42:56.785Z,100864.72
2022-10-14T10:45:38.032Z,100857.66
2022-10-14T10:48:12.977Z,100856.22
2022-10-14T10:50:48.650Z,100859.50
2022-10-14T10:53:29.504Z,100855.59
2022-10-14T10:56:10.914Z,100858.06
2022-10-14T10:58:44.267Z,100848.25
2022-10-14T11:01:26.344Z,100850.28
2022-10-14T11:04:08.135Z,100836.22
2022-10-14T11:07:03.769Z,100848.41
2022-10-14T11:10:00.063Z,100843.66
2022-10-14T11:12:34.302Z,100836.59
2022-10-14T11:15:27.750Z,100831.38
2022-10-14T11:18:02.825Z,100836.94
2022-10-14T11:20:39.412Z,100833.84
2022-10-14T11:23:34.783Z,100836.50
2022-10-14T11:26:12.947Z,100841.19
2022-10-14T11:28:47.484Z,100832.94
2022-10-14T11:31:27.927Z,100829.34
2022-10-14T11:34:10.664Z,100827.22
2022-10-14T11:36:46.018Z,100820.97
2022-10-14T11:39:29.603Z,100820.50
2022-10-14T11:42:11.339Z,100820.16
2022-10-14T11:44:40.449Z,100814.69
2022-10-14T11:47:16.143Z,100808.38
2022-10-14T11:49:49.777Z,100802.09
2022-10-14T11:52:24.578Z,100802.88
2022-10-14T11:54:56.703Z,100798.56
2022-10-14T11:57:32.799Z,100795.03
2022-10-14T12:00:03.492Z,100795.13
2022-10-14T12:02:42.003Z,100791.28
2022-10-14T12:05:18.252Z,100793.69
2022-10-14T12:07:50.999Z,100790.25
2022-10-14T12:10:26.862Z,100785.19
2022-10-14T12:12:56.765Z,100788.81
2022-10-14T12:15:27.807Z,100780.16
2022-10-14T12:17:58.983Z,100782.16
2022-10-14T12:20:35.346Z,100778.38
2022-10-14T12:23:06.191Z,100776.13
2022-10-14T12:25:41.450Z,100772.16
2022-10-14T12:28:13.384Z,100767.81
2022-10-14T12:30:42.986Z,100754.91
2022-10-14T12:33:12.681Z,100757.38
2022-10-14T12:35:51.738Z,100746.41
2022-10-14T12:38:20.814Z,100745.66
2022-10-14T12:40:49.520Z,100742.22
2022-10-14T12:43:23.522Z,100745.38
2022-10-14T12:46:15.605Z,100742.56
2022-10-14T12:48:50.778Z,100735.84
2022-10-14T12:51:23.068Z,100739.47
2022-10-14T12:54:08.647Z,100732.38
2022-10-14T12:56:40.330Z,100730.25
2022-10-14T12:59:10.275Z,100721.28
2022-10-14T13:01:38.670Z,100727.28
2022-10-14T13:04:19.990Z,100715.63
2022-10-14T13:07:46.396Z,100715.63
2022-10-14T13:10:47.266Z,100710.84
2022-10-14T13:13:53.368Z,100699.19
2022-10-14T13:16:57.168Z,100687.47
2022-10-14T13:19:47.037Z,100692.94
2022-10-14T13:22:40.089Z,100694.41
2022-10-14T13:25:15.418Z,100681.91
2022-10-14T13:28:12.417Z,100684.94
2022-10-14T13:30:52.374Z,100688.63
2022-10-14T13:33:26.399Z,100672.31
2022-10-14T13:36:05.573Z,100670.88
2022-10-14T13:38:35.965Z,100668.56
2022-10-14T13:41:04.877Z,100670.88
2022-10-14T13:43:38.934Z,100675.56
2022-10-14T13:46:11.152Z,100668.56
2022-10-14T13:48:41.576Z,100669.28
2022-10-14T13:51:36.712Z,100665.09
2022-10-14T13:54:17.698Z,100665.09
2022-10-14T13:56:45.720Z,100655.72
2022-10-14T13:59:43.172Z,100656.41
2022-10-14T14:02:16.480Z,100662.69
2022-10-14T14:04:51.703Z,100665.41
2022-10-14T14:08:08.419Z,100666.56
2022-10-14T14:10:13.020Z,100663.75
2022-10-14T14:12:43.777Z,100666.50
2022-10-14T14:15:20.803Z,100667.22
2022-10-14T14:17:48.635Z,100662.53
2022-10-14T14:20:20.655Z,100663.25
2022-10-14T14:22:48.472Z,100657.75
2022-10-14T14:25:34.010Z,100649.38
2022-10-14T14:28:05.818Z,100659.13
2022-10-14T14:30:35.783Z,100651.28
2022-10-14T14:33:06.050Z,100651.63
2022-10-14T14:35:33.964Z,100641.81
2022-10-14T14:38:01.980Z,100640.66
2022-10-14T14:40:32.223Z,100641.44
2022-10-14T14:43:02.019Z,100645.78
2022-10-14T14:45:32.640Z,100638.69
2022-10-14T14:48:07.523Z,100629.63
2022-10-14T14:50:38.474Z,100633.53
2022-10-14T14:53:12.841Z,100626.47
2022-10-14T14:55:47.059Z,100623.25
2022-10-14T14:58:27.414Z,100626.75
2022-10-14T15:00:55.888Z,100620.97
2022-10-14T15:03:24.907Z,100618.25
2022-10-14T15:05:55.353Z,100619.81
2022-10-14T15:08:25.302Z,100621.41
2022-10-14T15:10:56.491Z,100618.25
2022-10-14T15:13:33.594Z,100615.78
2022-10-14T15:16:01.421Z,100616.16
2022-10-14T15:18:30.477Z,100611.00
2022-10-14T15:21:07.923Z,100614.91
2022-10-14T15:23:45.928Z,100613.47
2022-10-14T15:26:31.911Z,100608.41
2022-10-14T15:29:13.952Z,100605.75
2022-10-14T15:31:43.663Z,100603.50
2022-10-14T15:34:20.018Z,100596.78
2022-10-14T15:36:51.060Z,100590.22
2022-10-14T15:39:18.929Z,100596.00
2022-10-14T15:41:48.097Z,100582.72
2022-10-14T15:44:16.385Z,100576.09
2022-10-14T15:47:03.529Z,100586.31
2022-10-14T15:49:36.016Z,100584.00
2022-10-14T15:52:03.825Z,100578.97
2022-10-14T15:54:31.711Z,100584.13
2022-10-14T15:57:00.867Z,100580.25
2022-10-14T15:59:28.706Z,100574.31
2022-10-14T16:01:56.636Z,100569.28
2022-10-14T16:04:27.778Z,100576.34
2022-10-14T16:06:57.117Z,100577.06
2022-10-14T16:09:27.720Z,100570.00
2022-10-14T16:11:58.144Z,100567.53
2022-10-14T16:14:28.000Z,100573.03
2022-10-14T16:16:56.202Z,100573.78
2022-10-14T16:19:24.152Z,100572.97
2022-10-14T16:21:52.009Z,100574.50
2022-10-14T16:24:21.677Z,100587.75
2022-10-14T16:26:49.848Z,100579.13
2022-10-14T16:29:18.166Z,100569.72
2022-10-14T16:31:49.710Z,100577.53
2022-10-14T16:34:17.790Z,100573.56
2022-10-14T16:36:46.177Z,100568.44
2022-10-14T16:39:14.379Z,100564.09
2022-10-14T16:41:42.388Z,100568.00
2022-10-14T16:44:24.727Z,100567.59
2022-10-14T16:47:12.359Z,100562.47
2022-10-14T16:49:40.969Z,100567.13
2022-10-14T16:52:09.201Z,100562.47
2022-10-14T16:54:37.256Z,100563.25
2022-10-14T16:57:05.504Z,100573.44
2022-10-14T16:59:33.951Z,100585.91
2022-10-14T17:02:03.656Z,100578.84
2022-10-14T17:04:31.446Z,100586.63
2022-10-14T17:07:02.676Z,100578.41
2022-10-14T17:09:30.480Z,100584.69
2022-10-14T17:11:58.298Z,100588.22
2022-10-14T17:14:27.100Z,100589.81
2022-10-14T17:16:55.043Z,100589.81
2022-10-14T17:19:24.776Z,100581.22
2022-10-14T17:21:52.731Z,100582.00
2022-10-14T17:24:20.661Z,100592.53
2022-10-14T17:26:48.498Z,100585.84
2022-10-14T17:29:16.262Z,100592.13
2022-10-14T17:31:44.828Z,100584.25
2022-10-14T17:34:12.642Z,100591.25
2022-10-14T17:36:42.114Z,100591.97
2022-10-14T17:39:18.746Z,100590.38
2022-10-14T17:41:52.436Z,100580.94
2022-10-14T17:44:20.462Z,100575.53
2022-10-14T17:46:48.299Z,100567.31
2022-10-14T17:49:16.107Z,100570.03
2022-10-14T17:51:45.515Z,100573.22
2022-10-14T17:54:13.659Z,100570.03
2022-10-14T17:56:43.039Z,100570.75
2022-10-14T17:59:14.306Z,100571.91
2022-10-14T18:02:02.708Z,100569.53
2022-10-14T18:04:30.429Z,100574.66
2022-10-14T18:06:59.669Z,100576.22
2022-10-14T18:09:27.502Z,100567.59
2022-10-14T18:12:08.133Z,100580.13
2022-10-14T18:14:36.867Z,100572.34
2022-10-14T18:17:05.243Z,100578.63
2022-10-14T18:19:33.266Z,100575.53
2022-10-14T18:22:02.662Z,100582.97
2022-10-14T18:24:30.447Z,100581.00
2022-10-14T18:26:58.235Z,100581.44
2022-10-14T18:29:26.247Z,100564.56
2022-10-14T18:31:54.034Z,100572.34
2022-10-14T18:34:22.384Z,100566.84
2022-10-14T18:36:50.245Z,100567.59
2022-10-14T18:39:20.279Z,100573.06
2022-10-14T18:41:48.368Z,100566.38
2022-10-14T18:44:16.375Z,100566.72
2022-10-14T18:46:44.267Z,100569.03
2022-10-14T18:49:12.944Z,100564.28
2022-10-14T18:51:42.113Z,100561.09
2022-10-14T18:54:13.861Z,100567.28
2022-10-14T18:56:44.449Z,100547.25
2022-10-14T18:59:15.182Z,100540.50
2022-10-14T19:01:43.587Z,100542.03
2022-10-14T19:04:13.980Z,100545.47
2022-10-14T19:06:44.952Z,100547.38
2022-10-14T19:09:13.852Z,100556.28
2022-10-14T19:11:44.714Z,100557.44
2022-10-14T19:14:14.341Z,100553.84
2022-10-14T19:16:42.868Z,100561.59
2022-10-14T19:19:15.270Z,100558.06
2022-10-14T19:21:43.595Z,100555.28
2022-10-14T19:24:12.773Z,100543.84
2022-10-14T19:26:44.245Z,100558.72
2022-10-14T19:29:14.553Z,100556.69
2022-10-14T19:31:43.654Z,100554.66
2022-10-14T19:34:14.319Z,100553.06
2022-10-14T19:36:43.224Z,100553.81
2022-10-14T19:39:14.156Z,100544.00
2022-10-14T19:41:44.898Z,100538.06
2022-10-14T19:44:14.123Z,100537.28
2022-10-14T19:46:42.582Z,100534.91
2022-10-14T19:49:13.116Z,100533.31
2022-10-14T19:51:41.468Z,100535.63
2022-10-14T19:54:11.629Z,100521.94
2022-10-14T19:56:39.451Z,100516.00
2022-10-14T19:59:09.130Z,100518.31
2022-10-14T20:01:37.127Z,100526.91
2022-10-14T20:04:05.013Z,100527.25
2022-10-14T20:06:35.653Z,100522.16
2022-10-14T20:09:03.947Z,100512.69
2022-10-14T20:11:32.106Z,100510.31
2022-10-14T20:14:00.133Z,100509.53
2022-10-14T20:16:29.560Z,100524.78
2022-10-14T20:18:57.655Z,100518.16
2022-10-14T20:21:26.357Z,100522.16
2022-10-14T20:23:54.172Z,100512.41
2022-10-14T20:26:23.094Z,100514.00
2022-10-14T20:28:51.747Z,100514.44
2022-10-14T20:31:21.872Z,100509.75
2022-10-14T20:33:51.054Z,100505.06
2022-10-14T20:36:21.017Z,100506.66
2022-10-14T20:38:49.263Z,100507.78
2022-10-14T20:41:19.669Z,100508.25
2022-10-14T20:43:47.891Z,100508.69
2022-10-14T20:46:15.884Z,100500.47
2022-10-14T20:48:44.233Z,100503.63
2022-10-14T20:51:15.411Z,100502.16
2022-10-14T20:53:43.319Z,100508.41
2022-10-14T20:56:12.708Z,100508.84
2022-10-14T20:58:40.713Z,100504.94
2022-10-14T21:01:10.048Z,100499.91
2022-10-14T21:03:38.188Z,100497.16
2022-10-14T21:06:08.142Z,100495.25
2022-10-14T21:08:37.650Z,100496.03
2022-10-14T21:11:10.496Z,100498.78
2022-10-14T21:13:44.012Z,100496.72
2022-10-14T21:16:17.095Z,100493.56
2022-10-14T21:18:49.122Z,100494.25
2022-10-14T21:21:18.586Z,100495.78
2022-10-14T21:23:47.775Z,100507.09
2022-10-14T21:26:15.864Z,100498.47
2022-10-14T21:28:44.226Z,100492.09
2022-10-14T21:31:17.396Z,100491.69
2022-10-14T21:33:47.187Z,100493.94
2022-10-14T21:36:16.884Z,100486.91
2022-10-14T21:38:45.119Z,100493.09
2022-10-14T21:41:14.476Z,100497.78
2022-10-14T21:43:42.619Z,100497.00
2022-10-14T21:46:12.142Z,100492.66
2022-10-14T21:48:40.815Z,100493.78
2022-10-14T21:51:10.356Z,100485.94
2022-10-14T21:53:39.289Z,100492.56
2022-10-14T21:56:08.111Z,100488.63
2022-10-14T21:58:37.681Z,100486.66
2022-10-14T22:01:07.544Z,100494.47
2022-10-14T22:03:36.682Z,100501.50
2022-10-14T22:06:06.639Z,100484.31
2022-10-14T22:08:37.606Z,100489.31
2022-10-14T22:11:06.203Z,100483.41
2022-10-14T22:13:35.178Z,100487.31
2022-10-14T22:16:04.282Z,100485.72
2022-10-14T22:18:32.554Z,100490.41
2022-10-14T22:21:03.861Z,100485.72
2022-10-14T22:23:31.836Z,100488.47
2022-10-14T22:26:01.985Z,100485.72
2022-10-14T22:28:30.988Z,100486.09
2022-10-14T22:31:06.790Z,100487.22
2022-10-14T22:33:36.156Z,100491.88
2022-10-14T22:36:08.861Z,100488.00
2022-10-14T22:38:37.430Z,100488.00
2022-10-14T22:41:06.610Z,100482.53
2022-10-14T22:43:34.983Z,100478.66
2022-10-14T22:46:04.152Z,100473.97
2022-10-14T22:48:33.440Z,100473.25
2022-10-14T22:51:03.642Z,100481.09
2022-10-14T22:53:31.482Z,100478.03
2022-10-14T22:55:59.662Z,100466.34
2022-10-14T22:58:27.535Z,100467.94
2022-10-14T23:00:55.348Z,100463.25
2022-10-14T23:03:23.525Z,100466.78
2022-10-14T23:05:52.684Z,100459.38
2022-10-14T23:08:21.171Z,100466.00
2022-10-14T23:10:49.289Z,100464.84
2022-10-14T23:13:17.076Z,100464.50
2022-10-14T23:15:44.844Z,100474.63
2022-10-14T23:18:12.596Z,100467.25
2022-10-14T23:20:40.328Z,100463.34
2022-10-14T23:23:09.547Z,100473.50
2022-10-14T23:25:40.944Z,100468.03
2022-10-14T23:28:08.806Z,100467.25
2022-10-14T23:30:37.377Z,100471.56
2022-10-14T23:33:05.825Z,100469.16
2022-10-14T23:35:36.471Z,100464.84
2022-10-14T23:38:04.632Z,100464.06
2022-10-14T23:40:34.056Z,100468.72
2022-10-14T23:43:01.995Z,100463.19
2022-10-14T23:45:29.965Z,100456.03
2022-10-14T23:47:57.718Z,100457.91
2022-10-14T23:50:25.662Z,100457.47
2022-10-14T23:52:53.404Z,100456.69
2022-10-14T23:55:21.159Z,100459.78
2022-10-14T23:57:50.286Z,100454.31
